sensor_id;sensor_type;location;lat;lon;timestamp;P1;durP1;ratioP1;P2;durP2;ratioP2
66680;SDS011;53575;51.366;12.350;2022-09-19T00:01:38;4.38;;;1.45;;
66680;SDS011;53575;51.366;12.350;2022-09-19T00:04:07;3.53;;;1.43;;
66680;SDS011;53575;51.366;12.350;2022-09-19T00:06:37;2.38;;;1.05;;
66680;SDS011;53575;51.366;12.350;2022-09-19T00:09:05;1.65;;;1.20;;
66680;SDS011;53575;51.366;12.350;2022-09-19T00:11:32;3.85;;;1.50;;
66680;SDS011;53575;51.366;12.350;2022-09-19T00:13:59;4.38;;;1.85;;
66680;SDS011;53575;51.366;12.350;2022-09-19T00:16:26;7.40;;;1.67;;
66680;SDS011;53575;51.366;12.350;2022-09-19T00:18:54;3.22;;;1.35;;
66680;SDS011;53575;51.366;12.350;2022-09-19T00:21:22;4.28;;;1.90;;
66680;SDS011;53575;51.366;12.350;2022-09-19T00:23:48;2.38;;;1.40;;
66680;SDS011;53575;51.366;12.350;2022-09-19T00:26:32;3.13;;;2.20;;
66680;SDS011;53575;51.366;12.350;2022-09-19T00:28:58;2.28;;;1.83;;
66680;SDS011;53575;51.366;12.350;2022-09-19T00:31:23;3.88;;;2.17;;
66680;SDS011;53575;51.366;12.350;2022-09-19T00:33:49;4.28;;;2.30;;
66680;SDS011;53575;51.366;12.350;2022-09-19T00:36:15;6.72;;;2.50;;
66680;SDS011;53575;51.366;12.350;2022-09-19T00:38:42;10.27;;;2.70;;
66680;SDS011;53575;51.366;12.350;2022-09-19T00:41:10;3.80;;;2.17;;
66680;SDS011;53575;51.366;12.350;2022-09-19T00:43:43;4.10;;;2.17;;
66680;SDS011;53575;51.366;12.350;2022-09-19T00:46:10;3.75;;;2.10;;
66680;SDS011;53575;51.366;12.350;2022-09-19T00:48:36;2.40;;;1.77;;
66680;SDS011;53575;51.366;12.350;2022-09-19T00:53:30;1.77;;;1.42;;
66680;SDS011;53575;51.366;12.350;2022-09-19T00:55:57;3.20;;;1.63;;
66680;SDS011;53575;51.366;12.350;2022-09-19T00:58:24;2.80;;;1.80;;
66680;SDS011;53575;51.366;12.350;2022-09-19T01:00:53;4.00;;;1.67;;
66680;SDS011;53575;51.366;12.350;2022-09-19T01:03:21;5.90;;;2.05;;
66680;SDS011;53575;51.366;12.350;2022-09-19T01:06:09;2.58;;;1.70;;
66680;SDS011;53575;51.366;12.350;2022-09-19T01:16:52;3.28;;;1.88;;
66680;SDS011;53575;51.366;12.350;2022-09-19T01:30:44;2.97;;;2.03;;
66680;SDS011;53575;51.366;12.350;2022-09-19T01:36:44;4.55;;;1.85;;
66680;SDS011;53575;51.366;12.350;2022-09-19T01:39:17;4.70;;;2.70;;
66680;SDS011;53575;51.366;12.350;2022-09-19T01:41:52;5.20;;;2.13;;
66680;SDS011;53575;51.366;12.350;2022-09-19T01:44:22;3.58;;;2.33;;
66680;SDS011;53575;51.366;12.350;2022-09-19T01:52:29;5.38;;;2.53;;
66680;SDS011;53575;51.366;12.350;2022-09-19T02:03:26;6.32;;;3.35;;
66680;SDS011;53575;51.366;12.350;2022-09-19T02:11:28;4.55;;;3.15;;
66680;SDS011;53575;51.366;12.350;2022-09-19T02:13:56;4.13;;;3.03;;
66680;SDS011;53575;51.366;12.350;2022-09-19T02:19:04;8.32;;;3.35;;
66680;SDS011;53575;51.366;12.350;2022-09-19T02:21:36;9.70;;;5.18;;
66680;SDS011;53575;51.366;12.350;2022-09-19T02:24:16;8.20;;;3.17;;
66680;SDS011;53575;51.366;12.350;2022-09-19T02:26:47;7.75;;;4.13;;
66680;SDS011;53575;51.366;12.350;2022-09-19T02:29:17;7.32;;;4.03;;
66680;SDS011;53575;51.366;12.350;2022-09-19T02:31:49;5.20;;;3.33;;
66680;SDS011;53575;51.366;12.350;2022-09-19T02:34:15;7.75;;;3.40;;
66680;SDS011;53575;51.366;12.350;2022-09-19T02:36:47;6.32;;;3.25;;
66680;SDS011;53575;51.366;12.350;2022-09-19T02:39:20;5.90;;;3.97;;
66680;SDS011;53575;51.366;12.350;2022-09-19T02:44:36;5.55;;;3.53;;
66680;SDS011;53575;51.366;12.350;2022-09-19T02:47:23;7.50;;;4.97;;
66680;SDS011;53575;51.366;12.350;2022-09-19T02:49:57;9.95;;;5.15;;
66680;SDS011;53575;51.366;12.350;2022-09-19T02:52:30;9.00;;;4.00;;
66680;SDS011;53575;51.366;12.350;2022-09-19T02:55:01;8.75;;;3.33;;
66680;SDS011;53575;51.366;12.350;2022-09-19T02:57:35;7.07;;;3.08;;
66680;SDS011;53575;51.366;12.350;2022-09-19T03:00:02;3.60;;;2.70;;
66680;SDS011;53575;51.366;12.350;2022-09-19T03:02:34;5.53;;;3.20;;
66680;SDS011;53575;51.366;12.350;2022-09-19T03:05:08;5.00;;;2.90;;
66680;SDS011;53575;51.366;12.350;2022-09-19T03:07:53;4.88;;;3.08;;
66680;SDS011;53575;51.366;12.350;2022-09-19T03:10:42;7.32;;;3.25;;
66680;SDS011;53575;51.366;12.350;2022-09-19T03:13:08;5.18;;;3.47;;
66680;SDS011;53575;51.366;12.350;2022-09-19T03:15:43;5.85;;;3.25;;
66680;SDS011;53575;51.366;12.350;2022-09-19T03:18:15;4.35;;;3.25;;
66680;SDS011;53575;51.366;12.350;2022-09-19T03:20:48;6.55;;;3.60;;
66680;SDS011;53575;51.366;12.350;2022-09-19T03:23:22;5.70;;;3.42;;
66680;SDS011;53575;51.366;12.350;2022-09-19T03:25:53;6.28;;;3.78;;
66680;SDS011;53575;51.366;12.350;2022-09-19T03:28:18;4.53;;;3.38;;
66680;SDS011;53575;51.366;12.350;2022-09-19T03:30:45;9.77;;;3.72;;
66680;SDS011;53575;51.366;12.350;2022-09-19T03:33:11;6.90;;;3.58;;
66680;SDS011;53575;51.366;12.350;2022-09-19T03:35:41;7.72;;;3.40;;
66680;SDS011;53575;51.366;12.350;2022-09-19T03:38:07;7.60;;;3.72;;
66680;SDS011;53575;51.366;12.350;2022-09-19T03:40:32;10.70;;;4.60;;
66680;SDS011;53575;51.366;12.350;2022-09-19T03:42:58;6.82;;;3.28;;
66680;SDS011;53575;51.366;12.350;2022-09-19T03:45:24;6.03;;;3.50;;
66680;SDS011;53575;51.366;12.350;2022-09-19T03:47:49;8.27;;;3.25;;
66680;SDS011;53575;51.366;12.350;2022-09-19T03:50:14;8.02;;;5.47;;
66680;SDS011;53575;51.366;12.350;2022-09-19T03:52:40;5.40;;;3.13;;
66680;SDS011;53575;51.366;12.350;2022-09-19T03:55:06;5.15;;;3.35;;
66680;SDS011;53575;51.366;12.350;2022-09-19T03:57:32;6.13;;;3.33;;
66680;SDS011;53575;51.366;12.350;2022-09-19T03:59:57;5.13;;;3.03;;
66680;SDS011;53575;51.366;12.350;2022-09-19T04:02:22;6.22;;;3.28;;
66680;SDS011;53575;51.366;12.350;2022-09-19T04:04:48;5.68;;;3.53;;
66680;SDS011;53575;51.366;12.350;2022-09-19T04:07:13;8.20;;;3.50;;
66680;SDS011;53575;51.366;12.350;2022-09-19T04:09:40;6.85;;;3.30;;
66680;SDS011;53575;51.366;12.350;2022-09-19T04:12:06;4.40;;;3.20;;
66680;SDS011;53575;51.366;12.350;2022-09-19T04:14:32;5.07;;;4.00;;
66680;SDS011;53575;51.366;12.350;2022-09-19T04:16:59;8.77;;;4.07;;
66680;SDS011;53575;51.366;12.350;2022-09-19T04:19:24;6.85;;;3.90;;
66680;SDS011;53575;51.366;12.350;2022-09-19T04:21:51;4.68;;;3.97;;
66680;SDS011;53575;51.366;12.350;2022-09-19T04:24:17;7.20;;;4.13;;
66680;SDS011;53575;51.366;12.350;2022-09-19T04:26:44;6.03;;;3.67;;
66680;SDS011;53575;51.366;12.350;2022-09-19T04:29:10;7.43;;;4.05;;
66680;SDS011;53575;51.366;12.350;2022-09-19T04:31:35;8.35;;;4.65;;
66680;SDS011;53575;51.366;12.350;2022-09-19T04:34:07;4.88;;;4.13;;
66680;SDS011;53575;51.366;12.350;2022-09-19T04:36:39;7.75;;;4.60;;
66680;SDS011;53575;51.366;12.350;2022-09-19T04:39:05;8.43;;;3.95;;
66680;SDS011;53575;51.366;12.350;2022-09-19T04:41:35;5.00;;;4.00;;
66680;SDS011;53575;51.366;12.350;2022-09-19T04:44:03;7.60;;;3.83;;
66680;SDS011;53575;51.366;12.350;2022-09-19T04:46:30;8.20;;;4.25;;
66680;SDS011;53575;51.366;12.350;2022-09-19T04:48:57;6.70;;;4.70;;
66680;SDS011;53575;51.366;12.350;2022-09-19T04:51:24;5.13;;;4.63;;
66680;SDS011;53575;51.366;12.350;2022-09-19T04:53:50;9.90;;;4.90;;
66680;SDS011;53575;51.366;12.350;2022-09-19T04:56:16;8.98;;;4.78;;
66680;SDS011;53575;51.366;12.350;2022-09-19T04:58:43;5.80;;;4.50;;
66680;SDS011;53575;51.366;12.350;2022-09-19T05:01:09;8.13;;;5.35;;
66680;SDS011;53575;51.366;12.350;2022-09-19T05:03:36;8.25;;;4.88;;
66680;SDS011;53575;51.366;12.350;2022-09-19T05:06:01;7.55;;;5.28;;
66680;SDS011;53575;51.366;12.350;2022-09-19T05:08:30;8.65;;;4.90;;
66680;SDS011;53575;51.366;12.350;2022-09-19T05:10:58;9.18;;;5.13;;
66680;SDS011;53575;51.366;12.350;2022-09-19T05:13:26;9.18;;;4.90;;
66680;SDS011;53575;51.366;12.350;2022-09-19T05:15:56;7.90;;;5.95;;
66680;SDS011;53575;51.366;12.350;2022-09-19T05:18:22;6.22;;;4.72;;
66680;SDS011;53575;51.366;12.350;2022-09-19T05:20:49;9.02;;;5.40;;
66680;SDS011;53575;51.366;12.350;2022-09-19T05:23:17;8.07;;;5.13;;
66680;SDS011;53575;51.366;12.350;2022-09-19T05:25:42;7.10;;;5.45;;
66680;SDS011;53575;51.366;12.350;2022-09-19T05:28:08;7.05;;;4.80;;
66680;SDS011;53575;51.366;12.350;2022-09-19T05:30:38;7.68;;;4.97;;
66680;SDS011;53575;51.366;12.350;2022-09-19T05:33:10;6.38;;;4.90;;
66680;SDS011;53575;51.366;12.350;2022-09-19T05:35:36;5.18;;;4.20;;
66680;SDS011;53575;51.366;12.350;2022-09-19T05:38:02;8.23;;;4.70;;
66680;SDS011;53575;51.366;12.350;2022-09-19T05:40:28;3.80;;;3.40;;
66680;SDS011;53575;51.366;12.350;2022-09-19T05:42:54;4.00;;;3.15;;
66680;SDS011;53575;51.366;12.350;2022-09-19T05:45:24;5.22;;;2.97;;
66680;SDS011;53575;51.366;12.350;2022-09-19T05:47:51;4.05;;;2.60;;
66680;SDS011;53575;51.366;12.350;2022-09-19T05:50:16;2.60;;;2.35;;
66680;SDS011;53575;51.366;12.350;2022-09-19T05:52:42;2.35;;;2.15;;
66680;SDS011;53575;51.366;12.350;2022-09-19T05:55:27;3.50;;;1.98;;
66680;SDS011;53575;51.366;12.350;2022-09-19T05:57:54;2.97;;;2.45;;
66680;SDS011;53575;51.366;12.350;2022-09-19T06:00:22;4.18;;;2.10;;
66680;SDS011;53575;51.366;12.350;2022-09-19T06:02:56;4.72;;;2.00;;
66680;SDS011;53575;51.366;12.350;2022-09-19T06:05:25;1.73;;;1.63;;
66680;SDS011;53575;51.366;12.350;2022-09-19T06:07:50;2.30;;;1.50;;
66680;SDS011;53575;51.366;12.350;2022-09-19T06:10:17;3.63;;;2.47;;
66680;SDS011;53575;51.366;12.350;2022-09-19T06:12:45;1.98;;;1.58;;
66680;SDS011;53575;51.366;12.350;2022-09-19T06:15:10;3.00;;;1.52;;
66680;SDS011;53575;51.366;12.350;2022-09-19T06:17:37;2.22;;;1.50;;
66680;SDS011;53575;51.366;12.350;2022-09-19T06:20:03;2.03;;;1.38;;
66680;SDS011;53575;51.366;12.350;2022-09-19T06:22:29;3.63;;;2.13;;
66680;SDS011;53575;51.366;12.350;2022-09-19T06:24:55;1.13;;;1.00;;
66680;SDS011;53575;51.366;12.350;2022-09-19T06:27:20;1.05;;;0.93;;
66680;SDS011;53575;51.366;12.350;2022-09-19T06:29:46;1.92;;;1.10;;
66680;SDS011;53575;51.366;12.350;2022-09-19T06:32:11;2.30;;;1.65;;
66680;SDS011;53575;51.366;12.350;2022-09-19T06:34:37;2.85;;;1.40;;
66680;SDS011;53575;51.366;12.350;2022-09-19T06:37:03;2.42;;;2.03;;
66680;SDS011;53575;51.366;12.350;2022-09-19T06:39:28;3.50;;;2.67;;
66680;SDS011;53575;51.366;12.350;2022-09-19T06:41:54;4.88;;;3.25;;
66680;SDS011;53575;51.366;12.350;2022-09-19T06:44:20;7.78;;;4.30;;
66680;SDS011;53575;51.366;12.350;2022-09-19T06:46:47;6.60;;;5.22;;
66680;SDS011;53575;51.366;12.350;2022-09-19T06:49:12;6.90;;;5.07;;
66680;SDS011;53575;51.366;12.350;2022-09-19T06:51:38;7.25;;;6.18;;
66680;SDS011;53575;51.366;12.350;2022-09-19T06:54:03;7.30;;;6.20;;
66680;SDS011;53575;51.366;12.350;2022-09-19T06:56:28;8.80;;;6.50;;
66680;SDS011;53575;51.366;12.350;2022-09-19T06:58:54;8.82;;;7.47;;
66680;SDS011;53575;51.366;12.350;2022-09-19T07:01:20;11.38;;;8.05;;
66680;SDS011;53575;51.366;12.350;2022-09-19T07:03:47;9.93;;;8.60;;
66680;SDS011;53575;51.366;12.350;2022-09-19T07:06:13;13.27;;;9.25;;
66680;SDS011;53575;51.366;12.350;2022-09-19T07:08:39;13.40;;;10.68;;
66680;SDS011;53575;51.366;12.350;2022-09-19T07:11:04;12.15;;;10.77;;
66680;SDS011;53575;51.366;12.350;2022-09-19T07:13:30;14.10;;;11.43;;
66680;SDS011;53575;51.366;12.350;2022-09-19T07:15:59;14.00;;;11.60;;
66680;SDS011;53575;51.366;12.350;2022-09-19T07:18:31;14.43;;;11.60;;
66680;SDS011;53575;51.366;12.350;2022-09-19T07:21:00;15.30;;;12.18;;
66680;SDS011;53575;51.366;12.350;2022-09-19T07:23:25;14.73;;;12.25;;
66680;SDS011;53575;51.366;12.350;2022-09-19T07:25:52;15.68;;;12.10;;
66680;SDS011;53575;51.366;12.350;2022-09-19T07:28:20;15.88;;;12.18;;
66680;SDS011;53575;51.366;12.350;2022-09-19T07:30:46;18.98;;;12.07;;
66680;SDS011;53575;51.366;12.350;2022-09-19T07:33:13;13.88;;;10.30;;
66680;SDS011;53575;51.366;12.350;2022-09-19T07:35:41;16.02;;;11.35;;
66680;SDS011;53575;51.366;12.350;2022-09-19T07:38:11;13.85;;;10.77;;
66680;SDS011;53575;51.366;12.350;2022-09-19T07:40:39;11.68;;;9.60;;
66680;SDS011;53575;51.366;12.350;2022-09-19T07:43:04;12.32;;;9.23;;
66680;SDS011;53575;51.366;12.350;2022-09-19T07:45:32;13.52;;;8.65;;
66680;SDS011;53575;51.366;12.350;2022-09-19T07:47:58;10.45;;;8.05;;
66680;SDS011;53575;51.366;12.350;2022-09-19T07:50:24;9.57;;;8.23;;
66680;SDS011;53575;51.366;12.350;2022-09-19T07:53:09;10.70;;;7.93;;
66680;SDS011;53575;51.366;12.350;2022-09-19T07:55:36;9.52;;;8.27;;
66680;SDS011;53575;51.366;12.350;2022-09-19T07:58:02;9.77;;;8.18;;
66680;SDS011;53575;51.366;12.350;2022-09-19T08:00:29;11.82;;;7.57;;
66680;SDS011;53575;51.366;12.350;2022-09-19T08:02:56;9.38;;;8.38;;
66680;SDS011;53575;51.366;12.350;2022-09-19T08:05:26;10.15;;;8.10;;
66680;SDS011;53575;51.366;12.350;2022-09-19T08:07:54;9.63;;;8.02;;
66680;SDS011;53575;51.366;12.350;2022-09-19T08:10:21;9.40;;;6.72;;
66680;SDS011;53575;51.366;12.350;2022-09-19T08:12:47;11.73;;;8.00;;
66680;SDS011;53575;51.366;12.350;2022-09-19T08:15:13;16.23;;;7.70;;
66680;SDS011;53575;51.366;12.350;2022-09-19T08:17:41;11.57;;;7.40;;
66680;SDS011;53575;51.366;12.350;2022-09-19T08:20:07;7.90;;;6.68;;
66680;SDS011;53575;51.366;12.350;2022-09-19T08:22:33;11.07;;;7.25;;
66680;SDS011;53575;51.366;12.350;2022-09-19T08:24:59;9.40;;;6.82;;
66680;SDS011;53575;51.366;12.350;2022-09-19T08:27:25;8.15;;;7.20;;
66680;SDS011;53575;51.366;12.350;2022-09-19T08:29:51;13.02;;;7.28;;
66680;SDS011;53575;51.366;12.350;2022-09-19T08:32:16;8.95;;;7.30;;
66680;SDS011;53575;51.366;12.350;2022-09-19T08:34:42;12.60;;;6.53;;
66680;SDS011;53575;51.366;12.350;2022-09-19T08:37:07;8.07;;;5.95;;
66680;SDS011;53575;51.366;12.350;2022-09-19T08:39:33;8.23;;;6.47;;
66680;SDS011;53575;51.366;12.350;2022-09-19T08:42:04;8.90;;;6.78;;
66680;SDS011;53575;51.366;12.350;2022-09-19T08:44:51;10.48;;;6.68;;
66680;SDS011;53575;51.366;12.350;2022-09-19T08:47:22;9.32;;;6.90;;
66680;SDS011;53575;51.366;12.350;2022-09-19T08:49:56;7.25;;;6.22;;
66680;SDS011;53575;51.366;12.350;2022-09-19T08:55:07;6.45;;;5.85;;
66680;SDS011;53575;51.366;12.350;2022-09-19T08:57:42;10.80;;;6.00;;
66680;SDS011;53575;51.366;12.350;2022-09-19T09:00:20;7.40;;;5.43;;
66680;SDS011;53575;51.366;12.350;2022-09-19T09:14:06;7.15;;;4.93;;
66680;SDS011;53575;51.366;12.350;2022-09-19T09:16:56;8.15;;;4.63;;
66680;SDS011;53575;51.366;12.350;2022-09-19T09:19:38;8.98;;;5.25;;
66680;SDS011;53575;51.366;12.350;2022-09-19T09:23:02;6.15;;;4.25;;
66680;SDS011;53575;51.366;12.350;2022-09-19T09:25:14;4.97;;;3.92;;
66680;SDS011;53575;51.366;12.350;2022-09-19T09:27:58;5.78;;;4.15;;
66680;SDS011;53575;51.366;12.350;2022-09-19T09:30:50;5.07;;;3.50;;
66680;SDS011;53575;51.366;12.350;2022-09-19T09:33:22;8.95;;;4.53;;
66680;SDS011;53575;51.366;12.350;2022-09-19T09:35:54;6.80;;;4.72;;
66680;SDS011;53575;51.366;12.350;2022-09-19T09:38:34;7.40;;;4.60;;
66680;SDS011;53575;51.366;12.350;2022-09-19T09:49:19;8.90;;;4.32;;
66680;SDS011;53575;51.366;12.350;2022-09-19T09:51:53;4.65;;;4.15;;
66680;SDS011;53575;51.366;12.350;2022-09-19T10:00:30;6.25;;;3.80;;
66680;SDS011;53575;51.366;12.350;2022-09-19T10:06:01;4.43;;;2.30;;
66680;SDS011;53575;51.366;12.350;2022-09-19T10:11:35;5.22;;;3.00;;
66680;SDS011;53575;51.366;12.350;2022-09-19T10:14:04;9.60;;;3.38;;
66680;SDS011;53575;51.366;12.350;2022-09-19T10:16:33;6.25;;;3.58;;
66680;SDS011;53575;51.366;12.350;2022-09-19T10:19:12;5.95;;;5.35;;
66680;SDS011;53575;51.366;12.350;2022-09-19T10:21:50;7.07;;;4.95;;
66680;SDS011;53575;51.366;12.350;2022-09-19T10:27:13;6.97;;;4.83;;
66680;SDS011;53575;51.366;12.350;2022-09-19T10:29:51;8.20;;;5.65;;
66680;SDS011;53575;51.366;12.350;2022-09-19T10:32:17;7.55;;;5.57;;
66680;SDS011;53575;51.366;12.350;2022-09-19T10:34:44;8.10;;;5.03;;
66680;SDS011;53575;51.366;12.350;2022-09-19T10:37:13;7.13;;;4.80;;
66680;SDS011;53575;51.366;12.350;2022-09-19T10:39:42;5.65;;;4.25;;
66680;SDS011;53575;51.366;12.350;2022-09-19T10:42:28;9.57;;;3.95;;
66680;SDS011;53575;51.366;12.350;2022-09-19T10:44:59;5.72;;;3.97;;
66680;SDS011;53575;51.366;12.350;2022-09-19T10:47:25;7.32;;;3.60;;
66680;SDS011;53575;51.366;12.350;2022-09-19T10:49:58;6.95;;;3.00;;
66680;SDS011;53575;51.366;12.350;2022-09-19T10:52:27;7.93;;;3.47;;
66680;SDS011;53575;51.366;12.350;2022-09-19T10:54:59;7.70;;;3.40;;
66680;SDS011;53575;51.366;12.350;2022-09-19T11:00:05;6.38;;;2.47;;
66680;SDS011;53575;51.366;12.350;2022-09-19T11:05:24;4.85;;;1.75;;
66680;SDS011;53575;51.366;12.350;2022-09-19T11:07:52;2.88;;;1.40;;
66680;SDS011;53575;51.366;12.350;2022-09-19T11:10:54;1.83;;;1.30;;
66680;SDS011;53575;51.366;12.350;2022-09-19T11:13:14;1.45;;;1.00;;
66680;SDS011;53575;51.366;12.350;2022-09-19T11:16:04;2.10;;;1.10;;
66680;SDS011;53575;51.366;12.350;2022-09-19T11:27:41;2.72;;;1.20;;
66680;SDS011;53575;51.366;12.350;2022-09-19T11:30:20;1.95;;;1.08;;
66680;SDS011;53575;51.366;12.350;2022-09-19T11:46:29;3.08;;;0.95;;
66680;SDS011;53575;51.366;12.350;2022-09-19T11:52:11;1.25;;;1.00;;
66680;SDS011;53575;51.366;12.350;2022-09-19T12:00:47;2.47;;;1.20;;
66680;SDS011;53575;51.366;12.350;2022-09-19T12:06:23;5.50;;;1.48;;
66680;SDS011;53575;51.366;12.350;2022-09-19T12:11:49;4.88;;;1.65;;
66680;SDS011;53575;51.366;12.350;2022-09-19T12:14:25;2.33;;;1.25;;
66680;SDS011;53575;51.366;12.350;2022-09-19T12:17:08;5.43;;;1.85;;
66680;SDS011;53575;51.366;12.350;2022-09-19T12:19:38;3.17;;;1.08;;
66680;SDS011;53575;51.366;12.350;2022-09-19T12:22:19;4.05;;;1.00;;
66680;SDS011;53575;51.366;12.350;2022-09-19T12:25:02;2.43;;;1.23;;
66680;SDS011;53575;51.366;12.350;2022-09-19T12:32:55;4.00;;;1.80;;
66680;SDS011;53575;51.366;12.350;2022-09-19T12:35:35;4.90;;;1.48;;
66680;SDS011;53575;51.366;12.350;2022-09-19T12:44:15;3.00;;;1.08;;
66680;SDS011;53575;51.366;12.350;2022-09-19T12:46:55;3.30;;;1.20;;
66680;SDS011;53575;51.366;12.350;2022-09-19T12:49:40;2.20;;;0.93;;
66680;SDS011;53575;51.366;12.350;2022-09-19T12:52:32;5.38;;;1.50;;
66680;SDS011;53575;51.366;12.350;2022-09-19T13:00:17;3.03;;;1.30;;
66680;SDS011;53575;51.366;12.350;2022-09-19T13:02:49;2.95;;;1.10;;
66680;SDS011;53575;51.366;12.350;2022-09-19T13:05:32;2.95;;;1.13;;
66680;SDS011;53575;51.366;12.350;2022-09-19T13:16:18;2.17;;;1.20;;
66680;SDS011;53575;51.366;12.350;2022-09-19T13:18:49;3.90;;;1.20;;
66680;SDS011;53575;51.366;12.350;2022-09-19T13:21:37;7.28;;;1.88;;
66680;SDS011;53575;51.366;12.350;2022-09-19T13:24:24;2.78;;;1.85;;
66680;SDS011;53575;51.366;12.350;2022-09-19T13:26:59;7.70;;;1.60;;
66680;SDS011;53575;51.366;12.350;2022-09-19T13:40:01;3.13;;;0.98;;
66680;SDS011;53575;51.366;12.350;2022-09-19T13:42:37;2.92;;;1.05;;
66680;SDS011;53575;51.366;12.350;2022-09-19T13:48:01;3.60;;;0.90;;
66680;SDS011;53575;51.366;12.350;2022-09-19T13:50:36;5.03;;;1.20;;
66680;SDS011;53575;51.366;12.350;2022-09-19T13:53:30;1.80;;;0.68;;
66680;SDS011;53575;51.366;12.350;2022-09-19T13:56:01;1.33;;;0.50;;
66680;SDS011;53575;51.366;12.350;2022-09-19T13:58:36;3.88;;;0.60;;
66680;SDS011;53575;51.366;12.350;2022-09-19T14:01:17;1.92;;;0.70;;
66680;SDS011;53575;51.366;12.350;2022-09-19T14:03:57;2.80;;;0.90;;
66680;SDS011;53575;51.366;12.350;2022-09-19T14:06:42;1.20;;;0.70;;
66680;SDS011;53575;51.366;12.350;2022-09-19T14:09:27;6.30;;;1.00;;
66680;SDS011;53575;51.366;12.350;2022-09-19T14:23:27;1.00;;;0.50;;
66680;SDS011;53575;51.366;12.350;2022-09-19T14:26:02;1.58;;;0.70;;
66680;SDS011;53575;51.366;12.350;2022-09-19T14:37:18;1.23;;;0.57;;
66680;SDS011;53575;51.366;12.350;2022-09-19T14:51:12;1.50;;;0.90;;
66680;SDS011;53575;51.366;12.350;2022-09-19T14:53:41;1.75;;;0.73;;
66680;SDS011;53575;51.366;12.350;2022-09-19T14:56:10;2.65;;;0.82;;
66680;SDS011;53575;51.366;12.350;2022-09-19T14:58:38;1.98;;;0.85;;
66680;SDS011;53575;51.366;12.350;2022-09-19T15:01:19;4.22;;;2.65;;
66680;SDS011;53575;51.366;12.350;2022-09-19T15:04:09;3.15;;;0.88;;
66680;SDS011;53575;51.366;12.350;2022-09-19T15:06:48;0.57;;;0.55;;
66680;SDS011;53575;51.366;12.350;2022-09-19T15:09:35;2.10;;;0.90;;
66680;SDS011;53575;51.366;12.350;2022-09-19T15:12:13;1.70;;;0.77;;
66680;SDS011;53575;51.366;12.350;2022-09-19T15:14:42;2.47;;;0.95;;
66680;SDS011;53575;51.366;12.350;2022-09-19T15:17:11;3.28;;;0.80;;
66680;SDS011;53575;51.366;12.350;2022-09-19T15:19:40;2.15;;;1.10;;
66680;SDS011;53575;51.366;12.350;2022-09-19T15:22:24;1.33;;;0.70;;
66680;SDS011;53575;51.366;12.350;2022-09-19T15:24:53;3.30;;;0.98;;
66680;SDS011;53575;51.366;12.350;2022-09-19T15:27:25;2.13;;;0.95;;
66680;SDS011;53575;51.366;12.350;2022-09-19T15:29:52;1.67;;;0.73;;
66680;SDS011;53575;51.366;12.350;2022-09-19T15:32:25;3.70;;;1.15;;
66680;SDS011;53575;51.366;12.350;2022-09-19T15:34:56;3.17;;;1.30;;
66680;SDS011;53575;51.366;12.350;2022-09-19T15:37:25;5.82;;;1.88;;
66680;SDS011;53575;51.366;12.350;2022-09-19T15:39:55;5.10;;;1.30;;
66680;SDS011;53575;51.366;12.350;2022-09-19T15:42:22;2.78;;;1.50;;
66680;SDS011;53575;51.366;12.350;2022-09-19T15:44:49;2.33;;;1.20;;
66680;SDS011;53575;51.366;12.350;2022-09-19T15:49:47;4.35;;;1.55;;
66680;SDS011;53575;51.366;12.350;2022-09-19T15:52:30;1.88;;;1.10;;
66680;SDS011;53575;51.366;12.350;2022-09-19T15:55:02;2.00;;;1.00;;
66680;SDS011;53575;51.366;12.350;2022-09-19T15:57:32;2.55;;;1.10;;
66680;SDS011;53575;51.366;12.350;2022-09-19T16:00:20;3.13;;;1.30;;
66680;SDS011;53575;51.366;12.350;2022-09-19T16:02:49;6.10;;;2.10;;
66680;SDS011;53575;51.366;12.350;2022-09-19T16:05:20;2.17;;;1.20;;
66680;SDS011;53575;51.366;12.350;2022-09-19T16:07:51;4.05;;;1.20;;
66680;SDS011;53575;51.366;12.350;2022-09-19T16:10:38;4.13;;;1.23;;
66680;SDS011;53575;51.366;12.350;2022-09-19T16:13:39;6.15;;;1.88;;
66680;SDS011;53575;51.366;12.350;2022-09-19T16:15:59;5.50;;;1.92;;
66680;SDS011;53575;51.366;12.350;2022-09-19T16:18:25;4.85;;;1.65;;
66680;SDS011;53575;51.366;12.350;2022-09-19T16:21:01;3.97;;;1.70;;
66680;SDS011;53575;51.366;12.350;2022-09-19T16:23:33;4.10;;;1.38;;
66680;SDS011;53575;51.366;12.350;2022-09-19T16:26:05;3.83;;;1.45;;
66680;SDS011;53575;51.366;12.350;2022-09-19T16:33:38;2.80;;;1.60;;
66680;SDS011;53575;51.366;12.350;2022-09-19T16:36:09;2.90;;;1.50;;
66680;SDS011;53575;51.366;12.350;2022-09-19T16:38:37;5.85;;;1.70;;
66680;SDS011;53575;51.366;12.350;2022-09-19T16:41:05;4.65;;;1.58;;
66680;SDS011;53575;51.366;12.350;2022-09-19T16:43:37;5.93;;;1.90;;
66680;SDS011;53575;51.366;12.350;2022-09-19T16:46:09;3.17;;;1.40;;
66680;SDS011;53575;51.366;12.350;2022-09-19T16:48:36;17.73;;;6.88;;
66680;SDS011;53575;51.366;12.350;2022-09-19T16:51:01;14.95;;;4.63;;
66680;SDS011;53575;51.366;12.350;2022-09-19T16:53:28;44.95;;;12.98;;
66680;SDS011;53575;51.366;12.350;2022-09-19T16:55:54;7.68;;;2.22;;
66680;SDS011;53575;51.366;12.350;2022-09-19T16:58:20;6.88;;;2.15;;
66680;SDS011;53575;51.366;12.350;2022-09-19T17:00:46;5.80;;;2.80;;
66680;SDS011;53575;51.366;12.350;2022-09-19T17:03:12;5.03;;;3.10;;
66680;SDS011;53575;51.366;12.350;2022-09-19T17:05:40;5.80;;;1.88;;
66680;SDS011;53575;51.366;12.350;2022-09-19T17:08:05;6.65;;;2.08;;
66680;SDS011;53575;51.366;12.350;2022-09-19T17:10:31;6.05;;;2.50;;
66680;SDS011;53575;51.366;12.350;2022-09-19T17:12:57;6.47;;;3.30;;
66680;SDS011;53575;51.366;12.350;2022-09-19T17:15:39;5.57;;;2.10;;
66680;SDS011;53575;51.366;12.350;2022-09-19T17:18:11;2.08;;;1.40;;
66680;SDS011;53575;51.366;12.350;2022-09-19T17:20:37;3.28;;;1.67;;
66680;SDS011;53575;51.366;12.350;2022-09-19T17:23:04;10.35;;;3.53;;
66680;SDS011;53575;51.366;12.350;2022-09-19T17:28:04;3.72;;;1.50;;
66680;SDS011;53575;51.366;12.350;2022-09-19T17:30:29;4.00;;;1.80;;
66680;SDS011;53575;51.366;12.350;2022-09-19T17:32:54;7.07;;;2.45;;
66680;SDS011;53575;51.366;12.350;2022-09-19T17:35:20;3.22;;;1.50;;
66680;SDS011;53575;51.366;12.350;2022-09-19T17:37:45;2.03;;;1.33;;
66680;SDS011;53575;51.366;12.350;2022-09-19T17:40:11;3.17;;;1.70;;
66680;SDS011;53575;51.366;12.350;2022-09-19T17:42:37;3.63;;;1.75;;
66680;SDS011;53575;51.366;12.350;2022-09-19T17:45:04;8.15;;;2.45;;
66680;SDS011;53575;51.366;12.350;2022-09-19T17:47:30;4.30;;;2.10;;
66680;SDS011;53575;51.366;12.350;2022-09-19T17:49:55;3.33;;;1.58;;
66680;SDS011;53575;51.366;12.350;2022-09-19T17:52:21;6.90;;;1.95;;
66680;SDS011;53575;51.366;12.350;2022-09-19T17:54:46;3.75;;;2.00;;
66680;SDS011;53575;51.366;12.350;2022-09-19T17:57:12;5.65;;;2.30;;
66680;SDS011;53575;51.366;12.350;2022-09-19T17:59:37;4.30;;;2.22;;
66680;SDS011;53575;51.366;12.350;2022-09-19T18:02:02;5.60;;;3.97;;
66680;SDS011;53575;51.366;12.350;2022-09-19T18:04:46;9.02;;;2.92;;
66680;SDS011;53575;51.366;12.350;2022-09-19T18:07:12;5.68;;;2.97;;
66680;SDS011;53575;51.366;12.350;2022-09-19T18:09:38;5.75;;;2.33;;
66680;SDS011;53575;51.366;12.350;2022-09-19T18:12:03;5.82;;;2.47;;
66680;SDS011;53575;51.366;12.350;2022-09-19T18:14:29;6.80;;;2.55;;
66680;SDS011;53575;51.366;12.350;2022-09-19T18:16:54;5.38;;;2.25;;
66680;SDS011;53575;51.366;12.350;2022-09-19T18:19:20;23.73;;;6.75;;
66680;SDS011;53575;51.366;12.350;2022-09-19T18:21:46;6.30;;;2.42;;
66680;SDS011;53575;51.366;12.350;2022-09-19T18:24:13;7.55;;;2.60;;